createdAt,value
2022-08-27T00:00:17.259Z,13
2022-08-27T00:05:17.889Z,13
2022-08-27T00:10:17.903Z,12
2022-08-27T00:15:18.085Z,11
2022-08-27T00:20:16.705Z,11
2022-08-27T00:25:17.328Z,12
2022-08-27T00:30:17.230Z,12
2022-08-27T00:35:17.231Z,11
2022-08-27T00:40:17.381Z,10
2022-08-27T00:45:16.753Z,11
2022-08-27T00:50:16.767Z,9
2022-08-27T00:55:17.430Z,9
2022-08-27T01:00:17.507Z,11
2022-08-27T01:05:16.795Z,10
2022-08-27T01:10:16.831Z,9
2022-08-27T01:15:19.901Z,9
2022-08-27T01:20:17.312Z,10
2022-08-27T01:25:17.358Z,8
2022-08-27T01:30:17.457Z,8
2022-08-27T01:35:17.357Z,9
2022-08-27T01:40:17.379Z,8
2022-08-27T01:45:17.143Z,9
2022-08-27T01:50:16.885Z,10
2022-08-27T01:55:17.403Z,9
2022-08-27T02:00:17.406Z,9
2022-08-27T02:05:17.404Z,10
2022-08-27T02:10:16.916Z,10
2022-08-27T02:15:17.444Z,10
2022-08-27T02:20:18.156Z,10
2022-08-27T02:25:16.946Z,10
2022-08-27T02:30:17.512Z,10
2022-08-27T02:35:17.020Z,10
2022-08-27T02:40:17.849Z,11
2022-08-27T02:45:16.977Z,10
2022-08-27T02:50:16.994Z,10
2022-08-27T02:55:17.790Z,11
2022-08-27T03:00:17.621Z,11
2022-08-27T03:05:17.621Z,10
2022-08-27T03:10:18.231Z,13
2022-08-27T03:15:17.635Z,15
2022-08-27T03:20:17.651Z,15
2022-08-27T03:25:17.148Z,14
2022-08-27T03:30:17.546Z,15
2022-08-27T03:35:17.658Z,13
2022-08-27T03:40:17.740Z,14
2022-08-27T03:45:17.128Z,13
2022-08-27T03:50:17.115Z,20
2022-08-27T03:55:17.276Z,13
2022-08-27T04:00:17.753Z,13
2022-08-27T04:05:18.344Z,12
2022-08-27T04:10:17.843Z,13
2022-08-27T04:15:17.141Z,13
2022-08-27T04:20:34.377Z,14
2022-08-27T04:25:17.791Z,14
2022-08-27T04:30:18.288Z,13
2022-08-27T04:35:17.803Z,13
2022-08-27T04:40:17.897Z,13
2022-08-27T04:45:17.829Z,13
2022-08-27T04:50:17.228Z,11
2022-08-27T04:55:17.952Z,12
2022-08-27T05:00:17.874Z,12
2022-08-27T05:05:18.619Z,14
2022-08-27T05:10:17.754Z,14
2022-08-27T05:15:17.292Z,16
2022-08-27T05:20:17.788Z,16
2022-08-27T05:25:17.907Z,16
2022-08-27T05:30:17.302Z,16
2022-08-27T05:35:17.303Z,15
2022-08-27T05:40:18.455Z,16
2022-08-27T05:45:17.299Z,16
2022-08-27T05:50:20.693Z,16
2022-08-27T05:55:18.588Z,17
2022-08-27T06:00:17.978Z,19
2022-08-27T06:05:17.423Z,17
2022-08-27T06:10:17.378Z,18
2022-08-27T06:15:18.026Z,18
2022-08-27T06:20:17.900Z,15
2022-08-27T06:25:18.004Z,17
2022-08-27T06:30:17.698Z,18
2022-08-27T06:35:17.453Z,17
2022-08-27T06:40:18.337Z,16
2022-08-27T06:45:17.438Z,17
2022-08-27T06:50:19.768Z,15
2022-08-27T06:55:18.061Z,15
2022-08-27T07:00:17.481Z,16
2022-08-27T07:05:17.494Z,15
2022-08-27T07:10:17.509Z,16
2022-08-27T07:15:18.735Z,15
2022-08-27T07:20:17.571Z,15
2022-08-27T07:25:18.022Z,15
2022-08-27T07:30:17.556Z,15
2022-08-27T07:35:18.065Z,15
2022-08-27T07:40:17.585Z,15
2022-08-27T07:45:18.097Z,16
2022-08-27T07:50:17.576Z,13
2022-08-27T07:55:18.205Z,13
2022-08-27T08:00:18.787Z,12
2022-08-27T08:05:17.592Z,12
2022-08-27T08:10:18.253Z,10
2022-08-27T08:15:18.245Z,12
2022-08-27T08:20:31.050Z,12
2022-08-27T08:25:17.911Z,11
2022-08-27T08:30:17.841Z,11
2022-08-27T08:35:18.278Z,10
2022-08-27T08:40:18.295Z,11
2022-08-27T08:45:17.685Z,10
2022-08-27T08:50:19.794Z,10
2022-08-27T08:55:17.755Z,8
2022-08-27T09:00:17.893Z,10
2022-08-27T09:05:18.342Z,8
2022-08-27T09:10:17.773Z,10
2022-08-27T09:15:18.347Z,9
2022-08-27T09:20:18.336Z,8
2022-08-27T09:25:20.893Z,13
2022-08-27T09:30:18.361Z,7
2022-08-27T09:35:17.770Z,8
2022-08-27T09:40:18.506Z,9
2022-08-27T09:45:17.831Z,9
2022-08-27T09:50:17.803Z,8
2022-08-27T09:55:17.817Z,8
2022-08-27T10:00:18.349Z,8
2022-08-27T10:05:19.057Z,8
2022-08-27T10:10:17.848Z,8
2022-08-27T10:15:18.386Z,8
2022-08-27T10:20:21.679Z,8
2022-08-27T10:25:17.939Z,8
2022-08-27T10:30:18.551Z,9
2022-08-27T10:35:18.419Z,8
2022-08-27T10:40:18.446Z,8
2022-08-27T10:45:24.141Z,7
2022-08-27T10:50:17.923Z,7
2022-08-27T10:55:18.513Z,7
2022-08-27T11:00:19.095Z,8
2022-08-27T11:05:18.446Z,7
2022-08-27T11:10:17.980Z,6
2022-08-27T11:15:18.644Z,5
2022-08-27T11:20:18.085Z,4
2022-08-27T11:25:18.609Z,5
2022-08-27T11:30:19.213Z,4
2022-08-27T11:35:18.620Z,4
2022-08-27T11:40:18.729Z,4
2022-08-27T11:45:18.533Z,5
2022-08-27T11:50:18.068Z,4
2022-08-27T11:55:18.584Z,4
2022-08-27T12:00:18.558Z,5
2022-08-27T12:05:19.279Z,4
2022-08-27T12:10:18.576Z,4
2022-08-27T12:15:18.119Z,4
2022-08-27T12:20:18.621Z,4
2022-08-27T12:25:19.244Z,4
2022-08-27T12:30:18.632Z,5
2022-08-27T12:35:18.807Z,5
2022-08-27T12:45:24.069Z,4
2022-08-27T12:50:18.143Z,5
2022-08-27T12:55:18.657Z,4
2022-08-27T13:00:18.670Z,5
2022-08-27T13:05:18.202Z,4
2022-08-27T13:10:18.728Z,5
2022-08-27T13:15:18.706Z,5
2022-08-27T13:20:18.828Z,5
2022-08-27T13:25:18.721Z,5
2022-08-27T13:30:35.417Z,5
2022-08-27T13:35:18.898Z,5
2022-08-27T13:40:19.382Z,5
2022-08-27T13:45:18.246Z,5
2022-08-27T13:50:18.331Z,6
2022-08-27T13:55:18.776Z,5
2022-08-27T14:00:18.315Z,5
2022-08-27T14:05:18.953Z,4
2022-08-27T14:10:18.340Z,5
2022-08-27T14:15:19.435Z,5
2022-08-27T14:20:18.856Z,5
2022-08-27T14:25:18.335Z,6
2022-08-27T14:30:18.852Z,5
2022-08-27T14:35:24.874Z,5
2022-08-27T14:40:19.561Z,5
2022-08-27T14:45:18.353Z,6
2022-08-27T14:50:18.990Z,5
2022-08-27T14:55:18.378Z,6
2022-08-27T15:00:19.065Z,5
2022-08-27T15:05:19.063Z,6
2022-08-27T15:10:19.747Z,5
2022-08-27T15:15:19.049Z,6
2022-08-27T15:20:19.897Z,6
2022-08-27T15:25:19.356Z,5
2022-08-27T15:30:18.499Z,5
2022-08-27T15:35:19.130Z,6
2022-08-27T15:40:18.607Z,6
2022-08-27T15:45:18.616Z,6
2022-08-27T15:50:18.492Z,6
2022-08-27T15:55:18.551Z,5
2022-08-27T16:00:19.154Z,5
2022-08-27T16:05:19.863Z,5
2022-08-27T16:10:18.553Z,5
2022-08-27T16:15:19.179Z,5
2022-08-27T16:20:19.149Z,7
2022-08-27T16:25:18.728Z,8
2022-08-27T16:30:20.160Z,8
2022-08-27T16:35:18.591Z,7
2022-08-27T16:40:19.873Z,8
2022-08-27T16:45:18.579Z,7
2022-08-27T16:50:22.952Z,7
2022-08-27T16:55:18.634Z,10
2022-08-27T17:00:18.642Z,10
2022-08-27T17:05:35.245Z,9
2022-08-27T17:10:18.657Z,8
2022-08-27T17:15:18.663Z,10
2022-08-27T17:20:19.188Z,8
2022-08-27T17:25:19.182Z,8
2022-08-27T17:30:19.242Z,9
2022-08-27T17:35:19.323Z,9
2022-08-27T17:40:19.993Z,9
2022-08-27T17:45:18.779Z,8
2022-08-27T17:50:18.750Z,6
2022-08-27T17:55:19.256Z,6
2022-08-27T18:00:19.378Z,5
2022-08-27T18:05:18.775Z,6
2022-08-27T18:10:19.462Z,6
2022-08-27T18:15:19.474Z,5
2022-08-27T18:20:20.012Z,6
2022-08-27T18:25:19.405Z,6
2022-08-27T18:30:20.039Z,6
2022-08-27T18:35:19.629Z,6
2022-08-27T18:40:19.488Z,7
2022-08-27T18:45:18.894Z,7
2022-08-27T18:50:19.246Z,6
2022-08-27T18:55:19.498Z,7
2022-08-27T19:00:20.099Z,6
2022-08-27T19:05:19.494Z,7
2022-08-27T19:10:19.560Z,7
2022-08-27T19:15:18.949Z,6
2022-08-27T19:20:19.540Z,8
2022-08-27T19:25:19.560Z,7
2022-08-27T19:30:18.938Z,8
2022-08-27T19:35:19.452Z,8
2022-08-27T19:40:19.538Z,11
2022-08-27T19:45:21.901Z,8
2022-08-27T19:50:19.024Z,16
2022-08-27T19:55:19.490Z,7
2022-08-27T20:00:19.590Z,8
2022-08-27T20:05:19.920Z,10
2022-08-27T20:10:19.687Z,11
2022-08-27T20:15:20.246Z,10
2022-08-27T20:20:20.248Z,9
2022-08-27T20:25:20.284Z,8
2022-08-27T20:30:19.670Z,8
2022-08-27T20:35:19.678Z,9
2022-08-27T20:40:19.718Z,8
2022-08-27T20:45:19.837Z,8
2022-08-27T20:51:01.498Z,9
2022-08-27T20:55:19.741Z,9
2022-08-27T21:00:20.010Z,10
2022-08-27T21:05:19.729Z,9
2022-08-27T21:10:19.643Z,8
2022-08-27T21:15:19.671Z,8
2022-08-27T21:20:20.440Z,10
2022-08-27T21:25:19.190Z,9
2022-08-27T21:30:19.816Z,8
2022-08-27T21:35:19.311Z,10
2022-08-27T21:40:19.268Z,10
2022-08-27T21:45:19.829Z,9
2022-08-27T21:50:19.226Z,9
2022-08-27T21:55:19.720Z,9
2022-08-27T22:00:19.230Z,8
2022-08-27T22:05:19.260Z,8
2022-08-27T22:10:19.835Z,10
2022-08-27T22:15:19.768Z,9
2022-08-27T22:20:19.308Z,9
2022-08-27T22:25:19.852Z,10
2022-08-27T22:30:19.813Z,8
2022-08-27T22:35:20.423Z,8
2022-08-27T22:40:20.487Z,7
2022-08-27T22:45:19.374Z,8
2022-08-27T22:50:19.325Z,8
2022-08-27T22:55:19.832Z,8
2022-08-27T23:00:20.478Z,7
2022-08-27T23:05:20.227Z,7
2022-08-27T23:10:19.867Z,7
2022-08-27T23:15:19.890Z,8
2022-08-27T23:20:19.417Z,6
2022-08-27T23:25:19.896Z,8
2022-08-27T23:30:20.532Z,7
2022-08-27T23:35:19.945Z,8
2022-08-27T23:40:19.981Z,7
2022-08-27T23:45:19.573Z,7
2022-08-27T23:50:20.113Z,8
2022-08-27T23:55:20.080Z,8
